createdAt,value
2022-08-08T00:00:52.387Z,19.20
2022-08-08T00:02:46.565Z,19.20
2022-08-08T00:05:22.447Z,19.20
2022-08-08T00:08:20.026Z,19.10
2022-08-08T00:10:55.610Z,19.10
2022-08-08T00:14:15.108Z,19.10
2022-08-08T00:16:26.018Z,19.10
2022-08-08T00:19:02.893Z,19.10
2022-08-08T00:21:39.730Z,19.00
2022-08-08T00:24:16.389Z,19.00
2022-08-08T00:26:51.058Z,19.00
2022-08-08T00:29:45.749Z,19.00
2022-08-08T00:32:34.945Z,19.00
2022-08-08T00:35:28.343Z,18.90
2022-08-08T00:38:16.768Z,18.80
2022-08-08T00:42:07.890Z,18.70
2022-08-08T00:45:00.742Z,18.70
2022-08-08T00:48:29.270Z,18.70
2022-08-08T00:51:38.780Z,18.70
2022-08-08T00:54:42.953Z,18.80
2022-08-08T00:57:41.703Z,18.70
2022-08-08T01:00:22.306Z,18.70
2022-08-08T01:04:01.662Z,18.60
2022-08-08T01:07:14.470Z,18.60
2022-08-08T01:10:25.167Z,18.60
2022-08-08T01:13:37.984Z,18.60
2022-08-08T01:16:56.202Z,18.60
2022-08-08T01:20:07.514Z,18.60
2022-08-08T01:23:06.657Z,18.60
2022-08-08T01:26:20.071Z,18.60
2022-08-08T01:29:35.408Z,18.50
2022-08-08T01:32:53.011Z,18.50
2022-08-08T01:35:50.760Z,18.50
2022-08-08T01:38:44.941Z,18.40
2022-08-08T01:41:22.031Z,18.30
2022-08-08T01:44:01.955Z,18.30
2022-08-08T01:46:51.369Z,18.20
2022-08-08T01:49:39.761Z,18.20
2022-08-08T01:52:32.578Z,18.20
2022-08-08T01:56:26.664Z,18.10
2022-08-08T01:58:38.764Z,18.10
2022-08-08T02:01:23.849Z,18.00
2022-08-08T02:04:13.739Z,18.00
2022-08-08T02:06:57.079Z,17.90
2022-08-08T02:10:01.975Z,17.90
2022-08-08T02:12:38.266Z,17.80
2022-08-08T02:15:12.491Z,17.80
2022-08-08T02:17:54.839Z,17.70
2022-08-08T02:21:02.582Z,17.70
2022-08-08T02:23:32.345Z,17.70
2022-08-08T02:26:24.623Z,17.60
2022-08-08T02:29:14.817Z,17.60
2022-08-08T02:32:10.244Z,17.50
2022-08-08T02:35:17.537Z,17.50
2022-08-08T02:38:30.107Z,17.40
2022-08-08T02:42:04.089Z,17.40
2022-08-08T02:45:09.691Z,17.40
2022-08-08T02:48:25.881Z,17.40
2022-08-08T02:51:46.792Z,17.40
2022-08-08T02:54:58.215Z,17.40
2022-08-08T02:58:03.920Z,17.30
2022-08-08T03:01:05.242Z,17.30
2022-08-08T03:05:02.897Z,17.30
2022-08-08T03:07:59.301Z,17.30
2022-08-08T03:11:13.952Z,17.30
2022-08-08T03:16:02.086Z,17.30
2022-08-08T03:17:39.144Z,17.20
2022-08-08T03:20:10.365Z,17.20
2022-08-08T03:22:55.896Z,17.20
2022-08-08T03:25:36.201Z,17.10
2022-08-08T03:28:10.468Z,17.10
2022-08-08T03:30:49.063Z,17.10
2022-08-08T03:33:55.788Z,17.10
2022-08-08T03:36:28.014Z,17.00
2022-08-08T03:39:14.816Z,17.00
2022-08-08T03:42:26.541Z,17.00
2022-08-08T03:44:39.016Z,17.00
2022-08-08T03:47:19.987Z,16.90
2022-08-08T03:49:59.855Z,16.90
2022-08-08T03:52:35.396Z,16.90
2022-08-08T03:55:55.091Z,16.80
2022-08-08T03:58:33.576Z,16.80
2022-08-08T04:01:02.566Z,16.80
2022-08-08T04:03:57.464Z,16.80
2022-08-08T04:06:30.952Z,16.70
2022-08-08T04:09:08.872Z,16.70
2022-08-08T04:11:57.785Z,16.70
2022-08-08T04:14:36.163Z,16.60
2022-08-08T04:17:22.494Z,16.60
2022-08-08T04:19:56.390Z,16.60
2022-08-08T04:22:29.767Z,16.50
2022-08-08T04:24:59.343Z,16.50
2022-08-08T04:28:03.464Z,16.60
2022-08-08T04:30:19.579Z,16.50
2022-08-08T04:32:51.909Z,16.50
2022-08-08T04:35:24.334Z,16.40
2022-08-08T04:37:54.871Z,16.50
2022-08-08T04:40:30.211Z,16.50
2022-08-08T04:43:01.693Z,16.50
2022-08-08T04:45:47.656Z,16.50
2022-08-08T04:48:21.720Z,16.50
2022-08-08T04:50:50.957Z,16.50
2022-08-08T04:54:27.578Z,16.50
2022-08-08T04:56:16.882Z,16.50
2022-08-08T04:58:48.367Z,16.50
2022-08-08T05:01:19.147Z,16.50
2022-08-08T05:04:10.876Z,16.50
2022-08-08T05:06:42.718Z,16.50
2022-08-08T05:09:12.615Z,16.50
2022-08-08T05:11:47.632Z,16.50
2022-08-08T05:14:20.567Z,16.50
2022-08-08T05:17:00.930Z,16.40
2022-08-08T05:20:11.230Z,16.50
2022-08-08T05:22:37.293Z,16.60
2022-08-08T05:25:07.571Z,16.60
2022-08-08T05:27:41.322Z,16.60
2022-08-08T05:30:15.951Z,16.70
2022-08-08T05:32:47.616Z,16.60
2022-08-08T05:35:24.041Z,16.70
2022-08-08T05:38:00.030Z,16.80
2022-08-08T05:40:57.626Z,16.80
2022-08-08T05:43:40.235Z,16.80
2022-08-08T05:46:18.160Z,17.00
2022-08-08T05:48:52.383Z,17.10
2022-08-08T05:51:25.803Z,17.10
2022-08-08T05:54:28.526Z,17.20
2022-08-08T05:56:47.666Z,17.30
2022-08-08T06:00:00.049Z,17.40
2022-08-08T06:02:40.933Z,17.40
2022-08-08T06:05:33.558Z,17.50
2022-08-08T06:08:09.384Z,17.60
2022-08-08T06:10:41.931Z,17.70
2022-08-08T06:13:12.695Z,17.70
2022-08-08T06:15:50.968Z,17.90
2022-08-08T06:18:30.061Z,17.90
2022-08-08T06:21:03.780Z,18.00
2022-08-08T06:24:02.537Z,18.10
2022-08-08T06:26:44.385Z,18.20
2022-08-08T06:29:26.346Z,18.30
2022-08-08T06:32:14.975Z,18.40
2022-08-08T06:35:12.106Z,18.40
2022-08-08T06:37:50.860Z,18.60
2022-08-08T06:40:27.278Z,18.70
2022-08-08T06:42:57.656Z,18.70
2022-08-08T06:45:34.194Z,18.90
2022-08-08T06:48:04.376Z,19.00
2022-08-08T06:50:39.396Z,19.10
2022-08-08T06:53:16.966Z,19.10
2022-08-08T06:56:02.088Z,19.30
2022-08-08T06:58:33.228Z,19.40
2022-08-08T07:01:11.613Z,19.50
2022-08-08T07:04:39.002Z,19.60
2022-08-08T07:06:57.955Z,19.60
2022-08-08T07:09:45.658Z,19.70
2022-08-08T07:12:35.192Z,19.90
2022-08-08T07:15:19.624Z,20.00
2022-08-08T07:18:36.278Z,20.10
2022-08-08T07:21:02.155Z,20.20
2022-08-08T07:24:01.044Z,20.40
2022-08-08T07:26:35.479Z,20.50
2022-08-08T07:29:07.943Z,20.50
2022-08-08T07:31:42.161Z,20.60
2022-08-08T07:34:20.292Z,20.70
2022-08-08T07:36:58.430Z,20.80
2022-08-08T07:39:45.493Z,20.90
2022-08-08T07:42:21.769Z,21.00
2022-08-08T07:45:02.587Z,21.20
2022-08-08T07:47:38.989Z,21.30
2022-08-08T07:50:10.637Z,21.30
2022-08-08T07:52:44.340Z,21.40
2022-08-08T07:55:28.708Z,21.40
2022-08-08T07:58:14.580Z,21.50
2022-08-08T08:00:49.541Z,21.60
2022-08-08T08:03:28.393Z,21.70
2022-08-08T08:06:00.454Z,21.80
2022-08-08T08:08:52.362Z,22.00
2022-08-08T08:11:33.826Z,22.10
2022-08-08T08:14:20.177Z,22.20
2022-08-08T08:16:54.017Z,22.20
2022-08-08T08:19:45.537Z,22.30
2022-08-08T08:22:31.282Z,22.30
2022-08-08T08:25:08.321Z,22.50
2022-08-08T08:27:46.575Z,22.60
2022-08-08T08:30:16.052Z,22.60
2022-08-08T08:32:51.121Z,22.70
2022-08-08T08:35:29.402Z,22.80
2022-08-08T08:38:17.550Z,22.90
2022-08-08T08:40:51.345Z,23.00
2022-08-08T08:43:26.649Z,23.00
2022-08-08T08:45:58.312Z,23.10
2022-08-08T08:48:33.129Z,23.20
2022-08-08T08:51:03.176Z,23.20
2022-08-08T08:53:56.746Z,23.40
2022-08-08T08:56:28.629Z,23.50
2022-08-08T08:59:05.637Z,23.50
2022-08-08T09:01:43.933Z,23.50
2022-08-08T09:04:32.120Z,23.50
2022-08-08T09:07:17.410Z,23.60
2022-08-08T09:09:57.134Z,23.70
2022-08-08T09:12:29.206Z,23.80
2022-08-08T09:15:01.754Z,23.80
2022-08-08T09:17:41.830Z,23.90
2022-08-08T09:21:57.488Z,24.00
2022-08-08T09:23:17.553Z,24.00
2022-08-08T09:26:03.064Z,24.10
2022-08-08T09:28:40.612Z,24.10
2022-08-08T09:31:42.182Z,24.20
2022-08-08T09:34:34.624Z,24.30
2022-08-08T09:37:57.787Z,24.40
2022-08-08T09:40:11.226Z,24.50
2022-08-08T09:42:51.705Z,24.60
2022-08-08T09:46:01.958Z,24.70
2022-08-08T09:48:21.389Z,24.80
2022-08-08T09:50:55.805Z,24.80
2022-08-08T09:53:54.384Z,24.80
2022-08-08T09:56:22.197Z,24.90
2022-08-08T09:59:07.840Z,24.90
2022-08-08T10:02:02.205Z,25.00
2022-08-08T10:04:41.375Z,25.10
2022-08-08T10:07:14.012Z,25.10
2022-08-08T10:10:00.486Z,25.30
2022-08-08T10:12:37.860Z,25.30
2022-08-08T10:15:18.274Z,25.40
2022-08-08T10:18:06.050Z,25.30
2022-08-08T10:20:58.066Z,25.40
2022-08-08T10:23:44.256Z,25.40
2022-08-08T10:26:25.988Z,25.50
2022-08-08T10:29:07.591Z,25.60
2022-08-08T10:32:00.776Z,25.70
2022-08-08T10:34:30.530Z,25.90
2022-08-08T10:37:05.582Z,26.00
2022-08-08T10:39:54.748Z,26.00
2022-08-08T10:42:38.318Z,26.00
2022-08-08T10:45:19.595Z,26.10
2022-08-08T10:47:56.618Z,26.10
2022-08-08T10:50:36.292Z,26.10
2022-08-08T10:53:11.757Z,26.10
2022-08-08T10:55:46.637Z,26.30
2022-08-08T10:58:15.521Z,26.20
2022-08-08T11:00:53.074Z,26.40
2022-08-08T11:04:00.550Z,26.50
2022-08-08T11:06:34.285Z,26.80
2022-08-08T11:09:09.973Z,26.90
2022-08-08T11:12:05.226Z,27.10
2022-08-08T11:14:48.591Z,27.10
2022-08-08T11:17:58.821Z,27.10
2022-08-08T11:20:11.096Z,27.20
2022-08-08T11:22:41.525Z,27.20
2022-08-08T11:25:13.740Z,27.70
2022-08-08T11:27:47.805Z,28.10
2022-08-08T11:30:19.395Z,28.20
2022-08-08T11:32:53.797Z,28.60
2022-08-08T11:35:42.391Z,28.90
2022-08-08T11:38:38.720Z,29.10
2022-08-08T11:41:04.471Z,29.20
2022-08-08T11:43:41.849Z,29.40
2022-08-08T11:46:18.471Z,29.60
2022-08-08T11:48:49.257Z,29.40
2022-08-08T11:51:38.536Z,28.90
2022-08-08T11:54:31.271Z,28.90
2022-08-08T11:57:16.618Z,29.00
2022-08-08T12:00:01.705Z,29.00
2022-08-08T12:02:52.106Z,29.10
2022-08-08T12:05:24.852Z,29.20
2022-08-08T12:07:56.985Z,29.30
2022-08-08T12:10:30.183Z,29.50
2022-08-08T12:13:05.113Z,29.50
2022-08-08T12:15:42.280Z,29.60
2022-08-08T12:18:21.204Z,29.30
2022-08-08T12:20:53.252Z,29.00
2022-08-08T12:23:40.195Z,29.10
2022-08-08T12:26:27.321Z,29.10
2022-08-08T12:28:58.656Z,29.60
2022-08-08T12:31:53.592Z,29.80
2022-08-08T12:34:36.185Z,29.70
2022-08-08T12:37:08.140Z,29.60
2022-08-08T12:40:01.366Z,29.70
2022-08-08T12:42:33.916Z,29.80
2022-08-08T12:45:58.137Z,29.80
2022-08-08T12:48:10.321Z,29.90
2022-08-08T12:50:49.763Z,29.80
2022-08-08T12:53:24.818Z,29.50
2022-08-08T12:56:18.191Z,29.40
2022-08-08T12:58:49.393Z,29.60
2022-08-08T13:01:29.504Z,29.80
2022-08-08T13:04:19.325Z,30.00
2022-08-08T13:07:03.093Z,30.20
2022-08-08T13:09:57.571Z,30.10
2022-08-08T13:12:33.464Z,30.30
2022-08-08T13:15:05.694Z,30.50
2022-08-08T13:18:09.759Z,30.50
2022-08-08T13:20:26.080Z,30.50
2022-08-08T13:23:30.002Z,30.50
2022-08-08T13:25:50.981Z,30.60
2022-08-08T13:28:32.170Z,30.80
2022-08-08T13:31:05.712Z,30.80
2022-08-08T13:33:41.998Z,31.10
2022-08-08T13:36:11.676Z,31.20
2022-08-08T13:38:40.184Z,31.20
2022-08-08T13:41:16.626Z,30.90
2022-08-08T13:43:47.238Z,30.70
2022-08-08T13:46:26.710Z,30.70
2022-08-08T13:49:11.487Z,30.70
2022-08-08T13:52:03.928Z,30.70
2022-08-08T13:54:34.793Z,30.70
2022-08-08T13:57:12.637Z,30.90
2022-08-08T13:59:47.912Z,30.40
2022-08-08T14:02:21.826Z,30.20
2022-08-08T14:05:09.258Z,30.20
2022-08-08T14:07:49.964Z,30.50
2022-08-08T14:10:33.463Z,30.50
2022-08-08T14:13:30.581Z,30.70
2022-08-08T14:16:04.423Z,30.90
2022-08-08T14:18:36.794Z,31.20
2022-08-08T14:21:24.949Z,31.10
2022-08-08T14:24:04.716Z,31.10
2022-08-08T14:26:42.951Z,31.10
2022-08-08T14:29:28.138Z,31.20
2022-08-08T14:32:12.765Z,31.20
2022-08-08T14:34:51.341Z,31.10
2022-08-08T14:37:22.084Z,31.00
2022-08-08T14:40:05.780Z,30.90
2022-08-08T14:42:55.030Z,30.90
2022-08-08T14:45:33.325Z,31.10
2022-08-08T14:48:27.389Z,31.30
2022-08-08T14:51:06.781Z,31.20
2022-08-08T14:53:56.062Z,31.50
2022-08-08T14:56:25.987Z,32.10
2022-08-08T14:58:55.152Z,32.10
2022-08-08T15:01:40.530Z,31.80
2022-08-08T15:04:10.475Z,31.60
2022-08-08T15:06:42.506Z,31.40
2022-08-08T15:09:18.127Z,31.50
2022-08-08T15:11:53.120Z,31.80
2022-08-08T15:14:25.167Z,31.80
2022-08-08T15:16:57.018Z,31.90
2022-08-08T15:19:27.740Z,32.00
2022-08-08T15:21:57.973Z,32.30
2022-08-08T15:24:31.616Z,32.00
2022-08-08T15:27:19.983Z,31.70
2022-08-08T15:29:48.474Z,31.60
2022-08-08T15:32:20.942Z,31.60
2022-08-08T15:34:50.802Z,31.60
2022-08-08T15:37:19.309Z,31.40
2022-08-08T15:39:49.417Z,31.20
2022-08-08T15:42:32.216Z,30.90
2022-08-08T15:45:01.465Z,30.70
2022-08-08T15:47:32.204Z,30.50
2022-08-08T15:50:01.823Z,30.30
2022-08-08T15:52:33.047Z,30.30
2022-08-08T15:55:03.266Z,30.20
2022-08-08T15:57:35.610Z,30.20
2022-08-08T16:00:25.758Z,30.10
2022-08-08T16:02:57.977Z,30.00
2022-08-08T16:05:35.139Z,29.90
2022-08-08T16:08:03.952Z,29.90
2022-08-08T16:13:08.670Z,29.90
2022-08-08T16:13:32.343Z,29.80
2022-08-08T16:16:17.600Z,29.80
2022-08-08T16:18:57.401Z,29.70
2022-08-08T16:21:32.098Z,29.80
2022-08-08T16:24:02.550Z,29.60
2022-08-08T16:26:35.724Z,29.50
2022-08-08T16:29:09.982Z,29.50
2022-08-08T16:31:49.085Z,29.60
2022-08-08T16:34:20.945Z,29.70
2022-08-08T16:36:50.863Z,29.80
2022-08-08T16:39:27.840Z,29.90
2022-08-08T16:42:13.845Z,30.30
2022-08-08T16:44:53.918Z,30.60
2022-08-08T16:47:41.952Z,30.80
2022-08-08T16:50:15.125Z,30.90
2022-08-08T16:55:23.649Z,31.10
2022-08-08T16:55:55.754Z,31.10
2022-08-08T16:58:26.422Z,31.20
2022-08-08T17:00:58.200Z,31.60
2022-08-08T17:03:59.018Z,32.00
2022-08-08T17:06:37.275Z,32.20
2022-08-08T17:09:04.528Z,32.20
2022-08-08T17:11:39.282Z,31.90
2022-08-08T17:14:19.913Z,31.70
2022-08-08T17:16:58.439Z,31.50
2022-08-08T17:19:30.263Z,31.40
2022-08-08T17:22:01.401Z,31.20
2022-08-08T17:27:14.321Z,30.80
2022-08-08T17:29:54.840Z,30.50
2022-08-08T17:32:28.899Z,30.20
2022-08-08T17:35:52.539Z,29.90
2022-08-08T17:37:53.296Z,29.60
2022-08-08T17:40:22.193Z,29.40
2022-08-08T17:42:51.759Z,29.20
2022-08-08T17:45:25.147Z,29.00
2022-08-08T17:47:55.154Z,28.90
2022-08-08T17:50:24.913Z,28.70
2022-08-08T17:52:59.148Z,28.60
2022-08-08T17:56:05.366Z,28.50
2022-08-08T17:58:18.606Z,28.40
2022-08-08T18:00:57.044Z,28.30
2022-08-08T18:03:25.837Z,28.20
2022-08-08T18:05:54.248Z,28.10
2022-08-08T18:08:24.506Z,28.00
2022-08-08T18:11:14.397Z,27.90
2022-08-08T18:13:45.304Z,27.80
2022-08-08T18:16:20.615Z,27.80
2022-08-08T18:18:52.779Z,27.70
2022-08-08T18:21:58.787Z,27.60
2022-08-08T18:24:19.513Z,27.60
2022-08-08T18:26:53.839Z,27.50
2022-08-08T18:29:27.246Z,27.40
2022-08-08T18:32:07.011Z,27.40
2022-08-08T18:34:36.904Z,27.30
2022-08-08T18:37:09.575Z,27.30
2022-08-08T18:39:40.948Z,27.20
2022-08-08T18:42:16.593Z,27.10
2022-08-08T18:44:54.814Z,27.00
2022-08-08T18:47:27.804Z,27.00
2022-08-08T18:49:59.992Z,26.90
2022-08-08T18:52:30.029Z,26.80
2022-08-08T18:55:09.543Z,26.80
2022-08-08T18:57:42.011Z,26.70
2022-08-08T19:00:16.450Z,26.60
2022-08-08T19:03:04.134Z,26.60
2022-08-08T19:05:37.951Z,26.50
2022-08-08T19:08:25.063Z,26.40
2022-08-08T19:11:01.322Z,26.30
2022-08-08T19:13:56.435Z,26.20
2022-08-08T19:16:28.559Z,26.10
2022-08-08T19:19:04.023Z,26.00
2022-08-08T19:21:48.848Z,25.90
2022-08-08T19:24:48.409Z,25.80
2022-08-08T19:27:08.840Z,25.70
2022-08-08T19:29:45.714Z,25.70
2022-08-08T19:32:19.586Z,25.60
2022-08-08T19:34:55.049Z,25.60
2022-08-08T19:37:43.062Z,25.60
2022-08-08T19:40:16.048Z,25.50
2022-08-08T19:42:45.471Z,25.40
2022-08-08T19:45:14.344Z,25.40
2022-08-08T19:48:02.211Z,25.40
2022-08-08T19:50:33.071Z,25.30
2022-08-08T19:53:03.253Z,25.20
2022-08-08T19:55:50.411Z,25.20
2022-08-08T19:58:19.938Z,25.10
2022-08-08T20:00:54.829Z,25.10
2022-08-08T20:04:02.162Z,25.00
2022-08-08T20:06:16.201Z,25.00
2022-08-08T20:08:48.174Z,24.90
2022-08-08T20:11:17.040Z,24.80
2022-08-08T20:14:31.546Z,24.80
2022-08-08T20:16:39.014Z,24.80
2022-08-08T20:19:09.249Z,24.70
2022-08-08T20:21:41.693Z,24.70
2022-08-08T20:24:10.710Z,24.70
2022-08-08T20:26:47.192Z,24.60
2022-08-08T20:29:24.062Z,24.60
2022-08-08T20:32:13.362Z,24.60
2022-08-08T20:34:47.546Z,24.50
2022-08-08T20:37:17.664Z,24.50
2022-08-08T20:39:51.327Z,24.40
2022-08-08T20:42:28.745Z,24.40
2022-08-08T20:44:58.616Z,24.30
2022-08-08T20:47:35.927Z,24.30
2022-08-08T20:50:05.961Z,24.20
2022-08-08T20:52:36.356Z,24.20
2022-08-08T20:55:07.672Z,24.20
2022-08-08T20:57:52.931Z,24.10
2022-08-08T21:00:22.097Z,24.10
2022-08-08T21:02:52.867Z,24.10
2022-08-08T21:05:23.122Z,24.00
2022-08-08T21:08:36.884Z,24.00
2022-08-08T21:10:41.163Z,23.90
2022-08-08T21:13:09.678Z,23.80
2022-08-08T21:16:05.174Z,23.80
2022-08-08T21:18:27.936Z,23.70
2022-08-08T21:20:56.707Z,23.60
2022-08-08T21:23:58.810Z,23.60
2022-08-08T21:26:21.219Z,23.60
2022-08-08T21:28:55.805Z,23.50
2022-08-08T21:31:57.628Z,23.50
2022-08-08T21:34:18.586Z,23.40
2022-08-08T21:36:48.306Z,23.40
2022-08-08T21:39:21.885Z,23.40
2022-08-08T21:41:53.861Z,23.30
2022-08-08T21:44:27.637Z,23.30
2022-08-08T21:48:05.752Z,23.20
2022-08-08T21:49:44.754Z,23.20
2022-08-08T21:54:35.469Z,23.20
2022-08-08T21:55:24.244Z,23.10
2022-08-08T21:58:04.192Z,23.10
2022-08-08T22:00:40.627Z,23.00
2022-08-08T22:03:10.955Z,23.00
2022-08-08T22:05:43.754Z,23.00
2022-08-08T22:08:12.122Z,22.90
2022-08-08T22:10:45.220Z,22.90
2022-08-08T22:13:19.548Z,22.90
2022-08-08T22:15:58.503Z,22.80
2022-08-08T22:18:29.840Z,22.80
2022-08-08T22:21:01.387Z,22.80
2022-08-08T22:23:41.047Z,22.70
2022-08-08T22:26:29.275Z,22.60
2022-08-08T22:29:13.989Z,22.60
2022-08-08T22:32:01.512Z,22.50
2022-08-08T22:34:32.530Z,22.50
2022-08-08T22:37:01.110Z,22.50
2022-08-08T22:39:45.910Z,22.50
2022-08-08T22:42:24.024Z,22.40
2022-08-08T22:44:56.100Z,22.40
2022-08-08T22:47:38.031Z,22.30
2022-08-08T22:50:09.647Z,22.30
2022-08-08T22:52:58.828Z,22.30
2022-08-08T22:55:57.855Z,22.20
2022-08-08T22:58:30.946Z,22.10
2022-08-08T23:01:00.659Z,22.00
2022-08-08T23:03:34.327Z,22.00
2022-08-08T23:06:17.846Z,22.00
2022-08-08T23:08:55.190Z,21.90
2022-08-08T23:11:31.268Z,21.80
2022-08-08T23:14:18.330Z,21.80
2022-08-08T23:16:54.512Z,21.80
2022-08-08T23:19:26.595Z,21.70
2022-08-08T23:21:54.858Z,21.70
2022-08-08T23:24:23.675Z,21.70
2022-08-08T23:26:55.625Z,21.60
2022-08-08T23:29:27.222Z,21.60
2022-08-08T23:31:59.810Z,21.60
2022-08-08T23:34:31.067Z,21.50
2022-08-08T23:37:00.637Z,21.50
2022-08-08T23:39:41.999Z,21.50
2022-08-08T23:42:17.687Z,21.50
2022-08-08T23:44:52.010Z,21.40
2022-08-08T23:49:06.164Z,21.40
2022-08-08T23:50:14.904Z,21.30
2022-08-08T23:52:59.211Z,21.30
2022-08-08T23:55:32.132Z,21.20
2022-08-08T23:58:01.726Z,21.20
